createdAt,value
2018-08-23T00:00:39.265Z,94.10
2018-08-23T00:04:07.127Z,94.10
2018-08-23T00:07:31.571Z,94.10
2018-08-23T00:10:55.980Z,94.20
2018-08-23T00:14:20.449Z,94.20
2018-08-23T00:17:47.649Z,94.20
2018-08-23T00:21:17.163Z,94.20
2018-08-23T00:24:41.641Z,94.30
2018-08-23T00:28:06.598Z,94.40
2018-08-23T00:31:34.171Z,94.50
2018-08-23T00:34:58.825Z,94.50
2018-08-23T00:38:23.238Z,94.60
2018-08-23T00:41:52.792Z,94.90
2018-08-23T00:45:19.032Z,94.70
2018-08-23T00:48:43.965Z,94.90
2018-08-23T00:52:08.430Z,94.90
2018-08-23T00:55:32.867Z,95.00
2018-08-23T00:59:00.665Z,94.90
2018-08-23T01:02:25.050Z,94.90
2018-08-23T01:05:49.462Z,94.90
2018-08-23T01:09:14.546Z,95.10
2018-08-23T01:12:49.445Z,95.10
2018-08-23T01:16:14.906Z,95.40
2018-08-23T01:19:44.580Z,95.60
2018-08-23T01:23:09.132Z,95.80
2018-08-23T01:26:35.638Z,95.60
2018-08-23T01:30:00.111Z,95.70
2018-08-23T01:33:24.548Z,96.00
2018-08-23T01:36:48.994Z,96.30
2018-08-23T01:40:13.429Z,96.80
2018-08-23T01:43:37.883Z,96.80
2018-08-23T01:47:03.466Z,97.00
2018-08-23T01:50:28.175Z,97.20
2018-08-23T01:53:52.642Z,97.30
2018-08-23T01:57:22.404Z,97.20
2018-08-23T02:00:49.055Z,97.20
2018-08-23T02:04:13.566Z,97.30
2018-08-23T02:07:37.970Z,97.20
2018-08-23T02:11:02.478Z,97.20
2018-08-23T02:14:28.370Z,97.50
2018-08-23T02:17:58.881Z,97.40
2018-08-23T02:21:23.352Z,97.60
2018-08-23T02:24:49.501Z,97.80
2018-08-23T02:28:13.916Z,97.80
2018-08-23T02:31:38.494Z,97.80
2018-08-23T02:35:06.006Z,97.70
2018-08-23T02:38:30.693Z,98.10
2018-08-23T02:41:55.132Z,97.80
2018-08-23T02:45:19.578Z,98.00
2018-08-23T02:48:44.054Z,98.10
2018-08-23T02:52:08.503Z,98.30
2018-08-23T02:55:39.328Z,98.40
2018-08-23T02:59:06.653Z,98.20
2018-08-23T03:02:31.125Z,98.40
2018-08-23T03:05:55.603Z,98.40
2018-08-23T03:09:23.892Z,98.60
2018-08-23T03:12:48.394Z,98.60
2018-08-23T03:16:13.302Z,98.60
2018-08-23T03:19:37.775Z,98.80
2018-08-23T03:23:02.205Z,98.70
2018-08-23T03:26:26.609Z,98.70
2018-08-23T03:29:51.278Z,98.90
2018-08-23T03:33:15.719Z,98.90
2018-08-23T03:36:40.153Z,99.10
2018-08-23T03:40:04.875Z,99.20
2018-08-23T03:43:29.324Z,99.10
2018-08-23T03:46:55.120Z,99.00
2018-08-23T03:50:19.540Z,99.10
2018-08-23T03:53:49.450Z,99.10
2018-08-23T03:57:16.606Z,99.20
2018-08-23T04:01:00.419Z,99.40
2018-08-23T04:04:24.812Z,99.50
2018-08-23T04:07:49.239Z,99.50
2018-08-23T04:11:13.721Z,99.20
2018-08-23T04:14:38.505Z,99.10
2018-08-23T04:18:18.300Z,99.10
2018-08-23T04:21:42.719Z,99.20
2018-08-23T04:25:14.049Z,99.20
2018-08-23T04:28:38.605Z,99.40
2018-08-23T04:32:04.451Z,99.70
2018-08-23T04:35:29.849Z,99.80
2018-08-23T04:38:58.366Z,99.80
2018-08-23T04:42:22.809Z,99.60
2018-08-23T04:45:47.293Z,99.60
2018-08-23T04:49:11.810Z,99.60
2018-08-23T04:52:36.228Z,99.80
2018-08-23T04:56:00.635Z,99.80
2018-08-23T04:59:25.096Z,99.90
2018-08-23T05:02:49.731Z,99.90
2018-08-23T05:06:14.241Z,99.90
2018-08-23T05:09:38.668Z,99.80
2018-08-23T05:13:03.126Z,99.80
2018-08-23T05:16:27.600Z,99.80
2018-08-23T05:19:52.110Z,99.90
2018-08-23T05:23:16.595Z,99.90
2018-08-23T05:26:41.407Z,99.90
2018-08-23T05:30:06.062Z,99.90
2018-08-23T05:33:30.492Z,99.90
2018-08-23T05:36:54.912Z,99.90
2018-08-23T05:40:19.337Z,99.90
2018-08-23T05:43:43.844Z,99.90
2018-08-23T05:47:08.308Z,99.90
2018-08-23T05:50:36.021Z,99.90
2018-08-23T05:54:00.448Z,99.90
2018-08-23T05:57:24.852Z,99.90
2018-08-23T06:00:49.264Z,99.50
2018-08-23T06:04:14.404Z,99.30
2018-08-23T06:07:38.873Z,98.90
2018-08-23T06:11:09.079Z,98.60
2018-08-23T06:14:33.480Z,98.40
2018-08-23T06:17:57.915Z,98.20
2018-08-23T06:21:22.414Z,98.30
2018-08-23T06:24:46.821Z,98.20
2018-08-23T06:28:24.203Z,98.20
2018-08-23T06:32:00.487Z,98.10
2018-08-23T06:35:26.485Z,97.60
2018-08-23T06:38:56.205Z,97.30
2018-08-23T06:42:21.043Z,97.30
2018-08-23T06:45:45.469Z,97.00
2018-08-23T06:49:09.897Z,96.80
2018-08-23T06:52:39.487Z,96.60
2018-08-23T06:56:03.917Z,96.10
2018-08-23T06:59:28.436Z,95.30
2018-08-23T07:02:52.872Z,94.60
2018-08-23T07:06:17.339Z,94.40
2018-08-23T07:09:41.762Z,94.10
2018-08-23T07:13:07.268Z,93.50
2018-08-23T07:16:32.507Z,93.20
2018-08-23T07:20:00.321Z,93.30
2018-08-23T07:23:34.609Z,93.40
2018-08-23T07:26:59.013Z,92.90
2018-08-23T07:30:23.452Z,92.50
2018-08-23T07:33:52.643Z,92.00
2018-08-23T07:37:18.394Z,92.00
2018-08-23T07:40:42.802Z,91.90
2018-08-23T07:44:07.279Z,91.70
2018-08-23T07:47:32.528Z,91.70
2018-08-23T07:50:57.011Z,91.50
2018-08-23T07:54:23.220Z,91.20
2018-08-23T07:57:47.812Z,91.00
2018-08-23T08:01:14.224Z,91.30
2018-08-23T08:04:38.639Z,90.80
2018-08-23T08:08:03.253Z,90.30
2018-08-23T08:11:30.096Z,90.70
2018-08-23T08:14:54.612Z,90.10
2018-08-23T08:18:22.786Z,89.70
2018-08-23T08:21:47.282Z,88.00
2018-08-23T08:25:19.129Z,88.10
2018-08-23T08:28:43.531Z,88.00
2018-08-23T08:32:10.050Z,87.60
2018-08-23T08:35:34.500Z,86.60
2018-08-23T08:38:59.371Z,84.10
2018-08-23T08:42:34.002Z,82.90
2018-08-23T08:45:59.509Z,82.00
2018-08-23T08:49:23.995Z,81.80
2018-08-23T08:52:48.396Z,81.30
2018-08-23T08:56:12.884Z,81.40
2018-08-23T08:59:37.329Z,81.00
2018-08-23T09:03:01.753Z,79.60
2018-08-23T09:06:46.669Z,79.00
2018-08-23T09:10:10.778Z,78.70
2018-08-23T09:13:40.339Z,79.00
2018-08-23T09:17:26.888Z,77.10
2018-08-23T09:20:54.895Z,76.60
2018-08-23T09:24:28.745Z,75.70
2018-08-23T09:27:53.165Z,74.00
2018-08-23T09:31:17.679Z,73.40
2018-08-23T09:34:42.645Z,72.30
2018-08-23T09:38:14.895Z,72.70
2018-08-23T09:41:39.451Z,70.80
2018-08-23T09:45:17.067Z,68.00
2018-08-23T09:48:41.485Z,67.00
2018-08-23T09:52:11.571Z,67.10
2018-08-23T09:55:35.968Z,68.40
2018-08-23T09:59:00.513Z,69.70
2018-08-23T10:02:30.144Z,67.80
2018-08-23T10:05:59.745Z,65.40
2018-08-23T10:09:24.533Z,65.10
2018-08-23T10:12:54.274Z,63.10
2018-08-23T10:16:24.032Z,62.20
2018-08-23T10:19:53.605Z,63.50
2018-08-23T10:23:26.095Z,64.90
2018-08-23T10:26:50.478Z,65.60
2018-08-23T10:30:14.973Z,64.50
2018-08-23T10:33:39.396Z,63.50
2018-08-23T10:37:03.760Z,59.70
2018-08-23T10:40:28.200Z,57.60
2018-08-23T10:43:52.609Z,55.30
2018-08-23T10:47:22.163Z,53.70
2018-08-23T10:50:48.196Z,53.20
2018-08-23T10:54:12.597Z,56.40
2018-08-23T10:57:37.034Z,59.90
2018-08-23T11:01:01.532Z,60.20
2018-08-23T11:04:25.946Z,56.70
2018-08-23T11:08:57.086Z,54.40
2018-08-23T11:12:26.653Z,51.40
2018-08-23T11:15:55.130Z,50.20
2018-08-23T11:19:24.751Z,50.20
2018-08-23T11:22:49.221Z,51.80
2018-08-23T11:26:22.182Z,52.50
2018-08-23T11:29:46.660Z,52.80
2018-08-23T11:33:11.103Z,53.70
2018-08-23T11:36:35.521Z,55.70
2018-08-23T11:39:59.989Z,56.00
2018-08-23T11:43:24.423Z,54.60
2018-08-23T11:46:48.966Z,54.40
2018-08-23T11:50:13.391Z,54.20
2018-08-23T11:53:38.056Z,54.50
2018-08-23T11:57:02.245Z,52.50
2018-08-23T12:00:26.733Z,52.20
2018-08-23T12:03:51.191Z,53.10
2018-08-23T12:07:15.624Z,52.60
2018-08-23T12:10:40.055Z,52.70
2018-08-23T12:14:04.664Z,53.00
2018-08-23T12:17:29.078Z,52.30
2018-08-23T12:20:53.496Z,51.50
2018-08-23T12:24:17.969Z,52.20
2018-08-23T12:27:42.778Z,52.40
2018-08-23T12:31:07.453Z,50.60
2018-08-23T12:34:36.187Z,50.90
2018-08-23T12:38:05.877Z,50.20
2018-08-23T12:42:35.171Z,50.10
2018-08-23T12:46:04.417Z,50.30
2018-08-23T12:49:28.893Z,49.80
2018-08-23T12:52:53.411Z,47.80
2018-08-23T12:56:17.923Z,45.90
2018-08-23T12:59:42.419Z,44.30
2018-08-23T13:03:07.731Z,43.20
2018-08-23T13:06:32.132Z,42.70
2018-08-23T13:09:56.553Z,40.70
2018-08-23T13:13:20.997Z,40.60
2018-08-23T13:16:45.531Z,39.80
2018-08-23T13:20:09.957Z,37.80
2018-08-23T13:23:34.416Z,37.40
2018-08-23T13:26:58.869Z,38.70
2018-08-23T13:30:23.329Z,38.90
2018-08-23T13:33:47.773Z,37.80
2018-08-23T13:37:12.200Z,36.50
2018-08-23T13:40:36.632Z,35.90
2018-08-23T13:44:01.155Z,35.90
2018-08-23T13:47:25.532Z,35.90
2018-08-23T13:50:49.954Z,34.10
2018-08-23T13:54:14.384Z,34.00
2018-08-23T13:57:38.857Z,32.60
2018-08-23T14:01:03.302Z,31.60
2018-08-23T14:04:27.723Z,31.60
2018-08-23T14:07:52.156Z,31.50
2018-08-23T14:11:16.690Z,32.80
2018-08-23T14:14:41.814Z,29.70
2018-08-23T14:18:06.287Z,29.50
2018-08-23T14:21:30.751Z,28.70
2018-08-23T14:24:55.247Z,28.30
2018-08-23T14:28:19.825Z,29.60
2018-08-23T14:31:44.235Z,28.70
2018-08-23T14:35:08.739Z,29.80
2018-08-23T14:38:33.270Z,28.00
2018-08-23T14:41:57.665Z,27.70
2018-08-23T14:45:27.251Z,26.90
2018-08-23T14:48:51.697Z,27.10
2018-08-23T14:52:16.178Z,27.00
2018-08-23T14:55:45.770Z,25.90
2018-08-23T14:59:10.275Z,26.60
2018-08-23T15:02:34.788Z,28.40
2018-08-23T15:05:59.211Z,29.40
2018-08-23T15:09:28.010Z,29.90
2018-08-23T15:12:52.568Z,28.30
2018-08-23T15:16:17.056Z,27.50
2018-08-23T15:19:41.685Z,27.40
2018-08-23T15:23:06.489Z,28.00
2018-08-23T15:26:31.056Z,28.20
2018-08-23T15:29:55.306Z,26.90
2018-08-23T15:33:19.719Z,26.90
2018-08-23T15:36:44.185Z,27.30
2018-08-23T15:40:08.687Z,26.90
2018-08-23T15:43:33.111Z,26.50
2018-08-23T15:46:57.518Z,27.10
2018-08-23T15:50:23.545Z,27.50
2018-08-23T15:53:47.915Z,27.20
2018-08-23T15:57:12.373Z,30.70
2018-08-23T16:00:39.808Z,34.40
2018-08-23T16:04:04.390Z,37.20
2018-08-23T16:07:28.790Z,34.30
2018-08-23T16:10:53.228Z,35.50
2018-08-23T16:14:17.709Z,38.90
2018-08-23T16:17:47.300Z,36.70
2018-08-23T16:21:11.711Z,34.80
2018-08-23T16:24:36.117Z,36.20
2018-08-23T16:28:06.136Z,38.40
2018-08-23T16:31:30.769Z,41.40
2018-08-23T16:34:55.270Z,44.20
2018-08-23T16:38:19.682Z,46.10
2018-08-23T16:41:44.153Z,46.20
2018-08-23T16:45:08.665Z,46.00
2018-08-23T16:48:33.097Z,46.50
2018-08-23T16:51:57.502Z,46.70
2018-08-23T16:55:21.923Z,47.20
2018-08-23T16:58:46.345Z,47.40
2018-08-23T17:02:10.958Z,44.70
2018-08-23T17:05:35.410Z,42.60
2018-08-23T17:09:00.149Z,40.50
2018-08-23T17:12:24.525Z,39.60
2018-08-23T17:15:54.117Z,41.00
2018-08-23T17:19:18.609Z,45.10
2018-08-23T17:22:44.581Z,47.60
2018-08-23T17:26:09.033Z,50.20
2018-08-23T17:29:33.467Z,52.70
2018-08-23T17:32:57.900Z,52.80
2018-08-23T17:36:22.336Z,55.00
2018-08-23T17:39:46.774Z,54.10
2018-08-23T17:43:11.213Z,55.10
2018-08-23T17:46:35.672Z,56.60
2018-08-23T17:50:00.111Z,56.40
2018-08-23T17:53:24.553Z,58.90
2018-08-23T17:56:49.009Z,57.00
2018-08-23T18:00:13.482Z,58.10
2018-08-23T18:03:37.913Z,58.60
2018-08-23T18:07:02.369Z,59.60
2018-08-23T18:10:28.022Z,62.80
2018-08-23T18:13:52.449Z,60.80
2018-08-23T18:17:16.895Z,60.50
2018-08-23T18:20:41.296Z,60.80
2018-08-23T18:24:05.883Z,64.30
2018-08-23T18:27:30.278Z,63.40
2018-08-23T18:30:54.716Z,64.40
2018-08-23T18:34:19.178Z,66.80
2018-08-23T18:37:43.785Z,63.90
2018-08-23T18:41:08.079Z,65.00
2018-08-23T18:44:32.500Z,66.60
2018-08-23T18:47:56.943Z,66.20
2018-08-23T18:51:21.356Z,68.10
2018-08-23T18:54:45.771Z,67.30
2018-08-23T18:58:10.232Z,71.50
2018-08-23T19:01:34.679Z,69.40
2018-08-23T19:04:59.117Z,72.50
2018-08-23T19:08:23.559Z,73.60
2018-08-23T19:11:48.019Z,74.20
2018-08-23T19:15:12.554Z,73.70
2018-08-23T19:18:37.379Z,73.10
2018-08-23T19:22:02.523Z,72.80
2018-08-23T19:25:27.619Z,74.60
2018-08-23T19:28:52.798Z,74.60
2018-08-23T19:32:18.113Z,73.70
2018-08-23T19:35:42.545Z,74.40
2018-08-23T19:39:11.503Z,75.50
2018-08-23T19:42:36.078Z,72.20
2018-08-23T19:46:05.715Z,72.20
2018-08-23T19:49:35.413Z,72.20
2018-08-23T19:52:59.935Z,71.30
2018-08-23T19:56:24.428Z,71.00
2018-08-23T19:59:48.937Z,71.10
2018-08-23T20:03:13.391Z,71.00
2018-08-23T20:06:37.962Z,71.10
2018-08-23T20:10:02.392Z,71.10
2018-08-23T20:13:26.986Z,71.00
2018-08-23T20:16:51.417Z,71.00
2018-08-23T20:20:17.017Z,71.90
2018-08-23T20:23:41.480Z,71.00
2018-08-23T20:27:05.953Z,70.80
2018-08-23T20:30:30.404Z,70.80
2018-08-23T20:33:54.832Z,71.00
2018-08-23T20:37:19.301Z,71.40
2018-08-23T20:40:43.716Z,71.20
2018-08-23T20:44:08.665Z,71.20
2018-08-23T20:47:33.108Z,71.40
2018-08-23T20:50:57.580Z,71.70
2018-08-23T20:54:22.020Z,72.10
2018-08-23T20:57:46.517Z,72.30
2018-08-23T21:01:10.963Z,72.20
2018-08-23T21:04:39.279Z,72.30
2018-08-23T21:08:03.821Z,72.60
2018-08-23T21:11:28.224Z,72.50
2018-08-23T21:14:52.645Z,72.80
2018-08-23T21:18:17.053Z,72.70
2018-08-23T21:21:41.452Z,72.90
2018-08-23T21:25:05.937Z,73.20
2018-08-23T21:28:30.358Z,73.70
2018-08-23T21:31:54.784Z,74.00
2018-08-23T21:35:19.224Z,74.00
2018-08-23T21:38:43.657Z,74.20
2018-08-23T21:42:08.113Z,74.00
2018-08-23T21:45:32.528Z,74.20
2018-08-23T21:48:56.995Z,74.20
2018-08-23T21:52:21.411Z,74.10
2018-08-23T21:55:45.831Z,73.90
2018-08-23T21:59:10.393Z,74.00
2018-08-23T22:02:34.874Z,74.20
2018-08-23T22:05:59.284Z,74.10
2018-08-23T22:09:23.730Z,74.30
2018-08-23T22:12:48.180Z,74.80
2018-08-23T22:16:12.632Z,74.90
2018-08-23T22:19:37.051Z,74.50
2018-08-23T22:23:01.469Z,74.70
2018-08-23T22:26:25.933Z,74.70
2018-08-23T22:29:50.314Z,74.90
2018-08-23T22:33:14.774Z,75.10
2018-08-23T22:36:39.164Z,75.50
2018-08-23T22:40:03.591Z,75.80
2018-08-23T22:43:28.015Z,75.80
2018-08-23T22:46:52.425Z,76.20
2018-08-23T22:50:16.854Z,76.50
2018-08-23T22:53:41.376Z,77.10
2018-08-23T22:57:05.856Z,77.40
2018-08-23T23:00:35.625Z,77.50
2018-08-23T23:04:05.309Z,77.80
2018-08-23T23:07:29.729Z,78.40
2018-08-23T23:10:54.076Z,79.70
2018-08-23T23:14:18.503Z,79.40
2018-08-23T23:17:42.953Z,80.00
2018-08-23T23:21:07.348Z,80.30
2018-08-23T23:24:36.756Z,81.00
2018-08-23T23:28:01.175Z,81.50
2018-08-23T23:31:25.597Z,81.20
2018-08-23T23:34:49.987Z,83.10
2018-08-23T23:38:14.367Z,84.30
2018-08-23T23:41:38.799Z,85.20
2018-08-23T23:45:03.215Z,87.50
2018-08-23T23:48:27.662Z,90.20
2018-08-23T23:51:52.090Z,92.30
2018-08-23T23:55:16.549Z,93.10
2018-08-23T23:58:40.994Z,94.30
